sensor_id;sensor_type;location;lat;lon;timestamp;pressure;altitude;pressure_sealevel;temperature;humidity
68456;BME280;55437;55.046;38.838;2022-11-20T00:02:12;99947.78;;;0.36;73.79
68456;BME280;55437;55.046;38.838;2022-11-20T00:04:38;99947.72;;;0.29;74.06
68456;BME280;55437;55.046;38.838;2022-11-20T00:07:04;99957.84;;;0.32;73.84
68456;BME280;55437;55.046;38.838;2022-11-20T00:09:30;99957.06;;;0.38;74.09
68456;BME280;55437;55.046;38.838;2022-11-20T00:11:55;99962.13;;;0.38;73.88
68456;BME280;55437;55.046;38.838;2022-11-20T00:14:21;99957.13;;;0.42;73.57
68456;BME280;55437;55.046;38.838;2022-11-20T00:16:47;99958.88;;;0.48;73.45
68456;BME280;55437;55.046;38.838;2022-11-20T00:19:12;99956.34;;;0.46;73.47
68456;BME280;55437;55.046;38.838;2022-11-20T00:21:38;99958.06;;;0.53;73.51
68456;BME280;55437;55.046;38.838;2022-11-20T00:24:04;99953.84;;;0.52;73.53
68456;BME280;55437;55.046;38.838;2022-11-20T00:26:30;99955.59;;;0.56;73.35
68456;BME280;55437;55.046;38.838;2022-11-20T00:28:58;99957.22;;;0.53;73.54
68456;BME280;55437;55.046;38.838;2022-11-20T00:31:24;99950.53;;;0.55;73.43
68456;BME280;55437;55.046;38.838;2022-11-20T00:33:50;99953.91;;;0.55;73.49
68456;BME280;55437;55.046;38.838;2022-11-20T00:36:19;99959.78;;;0.56;73.19
68456;BME280;55437;55.046;38.838;2022-11-20T00:38:45;99958.94;;;0.55;73.33
68456;BME280;55437;55.046;38.838;2022-11-20T00:41:14;99959.84;;;0.59;73.24
68456;BME280;55437;55.046;38.838;2022-11-20T00:43:40;99953.03;;;0.53;73.14
68456;BME280;55437;55.046;38.838;2022-11-20T00:46:08;99953.00;;;0.52;73.34
68456;BME280;55437;55.046;38.838;2022-11-20T00:48:34;99955.59;;;0.56;73.37
68456;BME280;55437;55.046;38.838;2022-11-20T00:51:00;99957.31;;;0.60;72.79
68456;BME280;55437;55.046;38.838;2022-11-20T00:53:27;99958.94;;;0.55;73.17
68456;BME280;55437;55.046;38.838;2022-11-20T00:56:01;99964.06;;;0.60;73.07
68456;BME280;55437;55.046;38.838;2022-11-20T00:58:35;99965.63;;;0.50;73.38
68456;BME280;55437;55.046;38.838;2022-11-20T01:03:32;99967.41;;;0.59;73.11
68456;BME280;55437;55.046;38.838;2022-11-20T01:06:06;99965.75;;;0.59;72.88
68456;BME280;55437;55.046;38.838;2022-11-20T01:08:35;99967.38;;;0.56;73.20
68456;BME280;55437;55.046;38.838;2022-11-20T01:11:03;99963.13;;;0.52;73.57
68456;BME280;55437;55.046;38.838;2022-11-20T01:13:31;99963.16;;;0.55;73.28
68456;BME280;55437;55.046;38.838;2022-11-20T01:16:08;99959.00;;;0.58;72.93
68456;BME280;55437;55.046;38.838;2022-11-20T01:18:35;99959.78;;;0.54;73.22
68456;BME280;55437;55.046;38.838;2022-11-20T01:21:06;99964.88;;;0.57;73.36
68456;BME280;55437;55.046;38.838;2022-11-20T01:23:38;99964.00;;;0.55;73.20
68456;BME280;55437;55.046;38.838;2022-11-20T01:26:06;99974.91;;;0.51;73.20
68456;BME280;55437;55.046;38.838;2022-11-20T01:28:33;99973.25;;;0.53;72.82
68456;BME280;55437;55.046;38.838;2022-11-20T01:30:59;99966.50;;;0.54;73.07
68456;BME280;55437;55.046;38.838;2022-11-20T01:33:24;99976.56;;;0.51;73.04
68456;BME280;55437;55.046;38.838;2022-11-20T01:35:51;99974.94;;;0.54;73.23
68456;BME280;55437;55.046;38.838;2022-11-20T01:38:17;99972.34;;;0.50;73.34
68456;BME280;55437;55.046;38.838;2022-11-20T01:40:43;99974.00;;;0.45;73.38
68456;BME280;55437;55.046;38.838;2022-11-20T01:43:19;99971.47;;;0.45;73.37
68456;BME280;55437;55.046;38.838;2022-11-20T01:51:30;99972.31;;;0.45;73.30
68456;BME280;55437;55.046;38.838;2022-11-20T01:54:00;99978.22;;;0.46;73.25
68456;BME280;55437;55.046;38.838;2022-11-20T01:56:29;99980.00;;;0.56;73.20
68456;BME280;55437;55.046;38.838;2022-11-20T01:58:58;99984.31;;;0.64;72.97
68456;BME280;55437;55.046;38.838;2022-11-20T02:01:26;99983.41;;;0.61;72.90
68456;BME280;55437;55.046;38.838;2022-11-20T02:03:52;99993.63;;;0.70;72.91
68456;BME280;55437;55.046;38.838;2022-11-20T02:06:42;99991.97;;;0.73;72.55
68456;BME280;55437;55.046;38.838;2022-11-20T02:09:09;99996.19;;;0.71;72.42
68456;BME280;55437;55.046;38.838;2022-11-20T02:11:35;99993.66;;;0.75;72.32
68456;BME280;55437;55.046;38.838;2022-11-20T02:14:01;100003.81;;;0.79;72.55
68456;BME280;55437;55.046;38.838;2022-11-20T02:16:46;99997.06;;;0.77;72.21
68456;BME280;55437;55.046;38.838;2022-11-20T02:19:24;100000.44;;;0.79;72.30
68456;BME280;55437;55.046;38.838;2022-11-20T02:22:13;100004.75;;;0.84;72.31
68456;BME280;55437;55.046;38.838;2022-11-20T02:24:41;100013.25;;;0.95;71.94
68456;BME280;55437;55.046;38.838;2022-11-20T02:27:12;100013.28;;;0.98;71.68
68456;BME280;55437;55.046;38.838;2022-11-20T02:29:46;100012.50;;;1.04;71.58
68456;BME280;55437;55.046;38.838;2022-11-20T02:32:30;100010.50;;;0.71;71.98
68456;BME280;55437;55.046;38.838;2022-11-20T02:34:57;100019.75;;;0.73;72.37
68456;BME280;55437;55.046;38.838;2022-11-20T02:37:31;100014.78;;;0.80;72.24
68456;BME280;55437;55.046;38.838;2022-11-20T02:39:58;100014.97;;;0.99;71.92
68456;BME280;55437;55.046;38.838;2022-11-20T02:42:23;100020.16;;;1.13;71.56
68456;BME280;55437;55.046;38.838;2022-11-20T02:44:49;100017.59;;;1.10;71.10
68456;BME280;55437;55.046;38.838;2022-11-20T02:47:15;100026.03;;;1.07;71.32
68456;BME280;55437;55.046;38.838;2022-11-20T02:49:42;100027.56;;;0.93;71.44
68456;BME280;55437;55.046;38.838;2022-11-20T02:52:07;100028.31;;;0.86;71.81
68456;BME280;55437;55.046;38.838;2022-11-20T02:54:33;100030.81;;;0.82;72.05
68456;BME280;55437;55.046;38.838;2022-11-20T02:56:59;100021.56;;;0.82;71.71
68456;BME280;55437;55.046;38.838;2022-11-20T02:59:25;100024.13;;;0.87;71.74
68456;BME280;55437;55.046;38.838;2022-11-20T03:01:50;100028.34;;;0.88;71.59
68456;BME280;55437;55.046;38.838;2022-11-20T03:04:16;100029.19;;;0.88;71.79
68456;BME280;55437;55.046;38.838;2022-11-20T03:06:42;100019.91;;;0.87;71.87
68456;BME280;55437;55.046;38.838;2022-11-20T03:09:08;100024.22;;;0.97;71.49
68456;BME280;55437;55.046;38.838;2022-11-20T03:11:34;100032.56;;;0.89;71.79
68456;BME280;55437;55.046;38.838;2022-11-20T03:14:04;100030.13;;;0.95;71.31
68456;BME280;55437;55.046;38.838;2022-11-20T03:16:30;100029.31;;;1.02;71.22
68456;BME280;55437;55.046;38.838;2022-11-20T03:18:56;100035.19;;;0.99;71.32
68456;BME280;55437;55.046;38.838;2022-11-20T03:21:22;100036.06;;;1.01;71.06
68456;BME280;55437;55.046;38.838;2022-11-20T03:23:48;100047.03;;;1.03;71.06
68456;BME280;55437;55.046;38.838;2022-11-20T03:26:19;100049.63;;;1.11;71.02
68456;BME280;55437;55.046;38.838;2022-11-20T03:28:50;100045.41;;;1.08;70.98
68456;BME280;55437;55.046;38.838;2022-11-20T03:31:19;100047.97;;;1.13;70.93
68456;BME280;55437;55.046;38.838;2022-11-20T03:33:45;100046.28;;;1.12;70.94
68456;BME280;55437;55.046;38.838;2022-11-20T03:36:13;100053.09;;;1.19;70.73
68456;BME280;55437;55.046;38.838;2022-11-20T03:38:40;100057.28;;;1.17;70.76
68456;BME280;55437;55.046;38.838;2022-11-20T03:41:14;100051.41;;;1.18;70.62
68456;BME280;55437;55.046;38.838;2022-11-20T03:43:40;100052.28;;;1.25;70.60
68456;BME280;55437;55.046;38.838;2022-11-20T03:46:07;100059.00;;;1.20;70.50
68456;BME280;55437;55.046;38.838;2022-11-20T03:48:33;100053.09;;;1.19;70.69
68456;BME280;55437;55.046;38.838;2022-11-20T03:51:13;100062.44;;;1.26;70.50
68456;BME280;55437;55.046;38.838;2022-11-20T03:53:40;100062.22;;;1.03;71.05
68456;BME280;55437;55.046;38.838;2022-11-20T03:56:07;100056.31;;;1.04;71.15
68456;BME280;55437;55.046;38.838;2022-11-20T03:58:35;100064.81;;;1.11;70.90
68456;BME280;55437;55.046;38.838;2022-11-20T04:01:11;100062.28;;;1.13;70.51
68456;BME280;55437;55.046;38.838;2022-11-20T04:03:38;100063.88;;;1.03;70.63
68456;BME280;55437;55.046;38.838;2022-11-20T04:06:05;100068.13;;;1.04;70.92
68456;BME280;55437;55.046;38.838;2022-11-20T04:08:32;100066.41;;;1.01;70.82
68456;BME280;55437;55.046;38.838;2022-11-20T04:11:08;100066.34;;;0.94;70.98
68456;BME280;55437;55.046;38.838;2022-11-20T04:13:34;100064.59;;;0.90;71.26
68456;BME280;55437;55.046;38.838;2022-11-20T04:16:00;100064.53;;;0.82;71.15
68456;BME280;55437;55.046;38.838;2022-11-20T04:18:25;100070.38;;;0.80;71.28
68456;BME280;55437;55.046;38.838;2022-11-20T04:20:51;100067.06;;;0.85;71.02
68456;BME280;55437;55.046;38.838;2022-11-20T04:23:17;100066.28;;;0.89;70.89
68456;BME280;55437;55.046;38.838;2022-11-20T04:25:42;100078.91;;;0.89;70.66
68456;BME280;55437;55.046;38.838;2022-11-20T04:28:09;100078.06;;;0.89;71.05
68456;BME280;55437;55.046;38.838;2022-11-20T04:30:34;100082.94;;;0.72;71.25
68456;BME280;55437;55.046;38.838;2022-11-20T04:33:00;100081.19;;;0.66;71.54
68456;BME280;55437;55.046;38.838;2022-11-20T04:35:26;100083.75;;;0.72;71.52
68456;BME280;55437;55.046;38.838;2022-11-20T04:37:52;100093.19;;;0.84;71.14
68456;BME280;55437;55.046;38.838;2022-11-20T04:40:17;100087.38;;;0.91;70.94
68456;BME280;55437;55.046;38.838;2022-11-20T04:42:43;100092.28;;;0.79;71.02
68456;BME280;55437;55.046;38.838;2022-11-20T04:45:10;100088.88;;;0.76;71.12
68456;BME280;55437;55.046;38.838;2022-11-20T04:47:35;100100.72;;;0.80;71.11
68456;BME280;55437;55.046;38.838;2022-11-20T04:50:02;100098.16;;;0.77;71.01
68456;BME280;55437;55.046;38.838;2022-11-20T04:52:29;100097.97;;;0.60;71.49
68456;BME280;55437;55.046;38.838;2022-11-20T04:54:54;100108.09;;;0.63;71.25
68456;BME280;55437;55.046;38.838;2022-11-20T04:57:20;100106.47;;;0.68;71.12
68456;BME280;55437;55.046;38.838;2022-11-20T04:59:46;100114.84;;;0.65;70.85
68456;BME280;55437;55.046;38.838;2022-11-20T05:02:11;100118.09;;;0.55;71.20
68456;BME280;55437;55.046;38.838;2022-11-20T05:04:37;100130.72;;;0.54;71.43
68456;BME280;55437;55.046;38.838;2022-11-20T05:07:03;100134.19;;;0.60;71.18
68456;BME280;55437;55.046;38.838;2022-11-20T05:09:30;100135.09;;;0.67;71.38
68456;BME280;55437;55.046;38.838;2022-11-20T05:11:55;100137.72;;;0.76;70.94
68456;BME280;55437;55.046;38.838;2022-11-20T05:14:21;100142.63;;;0.64;71.21
68456;BME280;55437;55.046;38.838;2022-11-20T05:16:47;100154.44;;;0.65;71.04
68456;BME280;55437;55.046;38.838;2022-11-20T05:19:13;100156.28;;;0.78;70.94
68456;BME280;55437;55.046;38.838;2022-11-20T05:21:38;100174.16;;;0.92;70.70
68456;BME280;55437;55.046;38.838;2022-11-20T05:24:04;100175.06;;;0.95;70.48
68456;BME280;55437;55.046;38.838;2022-11-20T05:26:31;100170.88;;;0.99;70.30
68456;BME280;55437;55.046;38.838;2022-11-20T05:28:57;100174.34;;;1.07;70.36
68456;BME280;55437;55.046;38.838;2022-11-20T05:31:24;100173.69;;;1.25;69.94
68456;BME280;55437;55.046;38.838;2022-11-20T05:33:50;100174.44;;;1.16;69.90
68456;BME280;55437;55.046;38.838;2022-11-20T05:36:17;100176.13;;;1.16;69.80
68456;BME280;55437;55.046;38.838;2022-11-20T05:38:43;100182.09;;;1.21;69.69
68456;BME280;55437;55.046;38.838;2022-11-20T05:41:14;100185.47;;;1.20;69.66
68456;BME280;55437;55.046;38.838;2022-11-20T05:43:42;100187.00;;;1.10;69.54
68456;BME280;55437;55.046;38.838;2022-11-20T05:46:10;100192.81;;;1.01;69.76
68456;BME280;55437;55.046;38.838;2022-11-20T05:48:37;100186.97;;;1.05;70.06
68456;BME280;55437;55.046;38.838;2022-11-20T05:51:06;100194.63;;;1.12;69.76
68456;BME280;55437;55.046;38.838;2022-11-20T05:53:33;100196.25;;;1.06;69.90
68456;BME280;55437;55.046;38.838;2022-11-20T05:56:00;100201.34;;;1.11;69.57
68456;BME280;55437;55.046;38.838;2022-11-20T05:58:27;100203.03;;;1.11;69.60
68456;BME280;55437;55.046;38.838;2022-11-20T06:00:53;100198.84;;;1.13;69.34
68456;BME280;55437;55.046;38.838;2022-11-20T06:03:20;100205.59;;;1.14;69.42
68456;BME280;55437;55.046;38.838;2022-11-20T06:05:46;100212.38;;;1.15;69.14
68456;BME280;55437;55.046;38.838;2022-11-20T06:08:12;100208.97;;;1.13;69.34
68456;BME280;55437;55.046;38.838;2022-11-20T06:10:38;100224.31;;;1.28;69.38
68456;BME280;55437;55.046;38.838;2022-11-20T06:13:03;100220.16;;;1.34;68.90
68456;BME280;55437;55.046;38.838;2022-11-20T06:15:29;100233.72;;;1.39;68.87
68456;BME280;55437;55.046;38.838;2022-11-20T06:17:55;100234.69;;;1.49;68.42
68456;BME280;55437;55.046;38.838;2022-11-20T06:20:21;100235.69;;;1.65;68.39
68456;BME280;55437;55.046;38.838;2022-11-20T06:22:47;100250.13;;;1.75;67.68
68456;BME280;55437;55.046;38.838;2022-11-20T06:25:13;100246.75;;;1.74;67.96
68456;BME280;55437;55.046;38.838;2022-11-20T06:27:39;100247.53;;;1.67;67.94
68456;BME280;55437;55.046;38.838;2022-11-20T06:30:05;100250.06;;;1.66;68.13
68456;BME280;55437;55.046;38.838;2022-11-20T06:32:32;100257.66;;;1.66;67.76
68456;BME280;55437;55.046;38.838;2022-11-20T06:34:58;100264.50;;;1.76;67.77
68456;BME280;55437;55.046;38.838;2022-11-20T06:37:24;100262.75;;;1.72;67.64
68456;BME280;55437;55.046;38.838;2022-11-20T06:39:49;100251.72;;;1.65;67.73
68456;BME280;55437;55.046;38.838;2022-11-20T06:42:15;100250.88;;;1.65;67.61
68456;BME280;55437;55.046;38.838;2022-11-20T06:44:41;100250.00;;;1.61;67.68
68456;BME280;55437;55.046;38.838;2022-11-20T06:47:07;100257.66;;;1.66;67.75
68456;BME280;55437;55.046;38.838;2022-11-20T06:49:32;100246.69;;;1.67;67.74
68456;BME280;55437;55.046;38.838;2022-11-20T06:51:59;100239.91;;;1.64;67.60
68456;BME280;55437;55.046;38.838;2022-11-20T06:54:25;100238.97;;;1.55;67.57
68456;BME280;55437;55.046;38.838;2022-11-20T06:56:51;100249.91;;;1.52;67.74
68456;BME280;55437;55.046;38.838;2022-11-20T06:59:16;100245.59;;;1.43;68.28
68456;BME280;55437;55.046;38.838;2022-11-20T07:01:42;100239.84;;;1.60;67.76
68456;BME280;55437;55.046;38.838;2022-11-20T07:04:08;100242.53;;;1.75;67.50
68456;BME280;55437;55.046;38.838;2022-11-20T07:06:34;100235.97;;;1.94;67.26
68456;BME280;55437;55.046;38.838;2022-11-20T07:09:00;100242.81;;;2.01;66.85
68456;BME280;55437;55.046;38.838;2022-11-20T07:11:25;100246.19;;;2.03;66.74
68456;BME280;55437;55.046;38.838;2022-11-20T07:13:51;100250.44;;;2.04;66.25
68456;BME280;55437;55.046;38.838;2022-11-20T07:16:17;100239.47;;;2.06;66.32
68456;BME280;55437;55.046;38.838;2022-11-20T07:18:43;100247.81;;;1.96;66.75
68456;BME280;55437;55.046;38.838;2022-11-20T07:21:09;100251.28;;;2.04;66.35
68456;BME280;55437;55.046;38.838;2022-11-20T07:23:36;100250.44;;;2.04;66.41
68456;BME280;55437;55.046;38.838;2022-11-20T07:26:03;100263.16;;;2.13;66.04
68456;BME280;55437;55.046;38.838;2022-11-20T07:28:29;100274.28;;;2.30;65.77
68456;BME280;55437;55.046;38.838;2022-11-20T07:30:55;100274.41;;;2.41;65.15
68456;BME280;55437;55.046;38.838;2022-11-20T07:33:21;100281.16;;;2.43;65.39
68456;BME280;55437;55.046;38.838;2022-11-20T07:35:47;100286.28;;;2.49;65.13
68456;BME280;55437;55.046;38.838;2022-11-20T07:38:13;100293.88;;;2.48;65.12
68456;BME280;55437;55.046;38.838;2022-11-20T07:40:38;100296.38;;;2.45;64.96
68456;BME280;55437;55.046;38.838;2022-11-20T07:43:04;100291.25;;;2.42;65.29
68456;BME280;55437;55.046;38.838;2022-11-20T07:45:30;100298.06;;;2.46;65.17
68456;BME280;55437;55.046;38.838;2022-11-20T07:47:56;100297.28;;;2.50;65.07
68456;BME280;55437;55.046;38.838;2022-11-20T07:50:21;100289.69;;;2.54;64.65
68456;BME280;55437;55.046;38.838;2022-11-20T07:52:47;100280.41;;;2.57;64.83
68456;BME280;55437;55.046;38.838;2022-11-20T07:55:13;100275.41;;;2.66;64.38
68456;BME280;55437;55.046;38.838;2022-11-20T07:57:39;100277.84;;;2.50;64.64
68456;BME280;55437;55.046;38.838;2022-11-20T08:00:06;100286.22;;;2.45;64.74
68456;BME280;55437;55.046;38.838;2022-11-20T08:02:44;100291.31;;;2.45;64.75
68456;BME280;55437;55.046;38.838;2022-11-20T08:05:10;100291.44;;;2.62;64.67
68456;BME280;55437;55.046;38.838;2022-11-20T08:07:37;100293.97;;;2.62;64.32
68456;BME280;55437;55.046;38.838;2022-11-20T08:10:03;100304.13;;;2.66;64.14
68456;BME280;55437;55.046;38.838;2022-11-20T08:12:29;100306.69;;;2.69;63.82
68456;BME280;55437;55.046;38.838;2022-11-20T08:15:13;100308.41;;;2.72;63.72
68456;BME280;55437;55.046;38.838;2022-11-20T08:17:39;100305.00;;;2.68;63.95
68456;BME280;55437;55.046;38.838;2022-11-20T08:20:08;100315.97;;;2.67;64.08
68456;BME280;55437;55.046;38.838;2022-11-20T08:22:34;100314.34;;;2.74;64.13
68456;BME280;55437;55.046;38.838;2022-11-20T08:25:00;100316.09;;;2.84;63.77
68456;BME280;55437;55.046;38.838;2022-11-20T08:27:27;100309.38;;;2.87;63.43
68456;BME280;55437;55.046;38.838;2022-11-20T08:29:53;100316.16;;;2.92;63.55
68456;BME280;55437;55.046;38.838;2022-11-20T08:32:21;100316.19;;;2.96;63.36
68456;BME280;55437;55.046;38.838;2022-11-20T08:34:47;100318.75;;;2.99;62.95
68456;BME280;55437;55.046;38.838;2022-11-20T08:37:12;100324.72;;;3.09;62.85
68456;BME280;55437;55.046;38.838;2022-11-20T08:39:38;100321.38;;;3.16;62.77
68456;BME280;55437;55.046;38.838;2022-11-20T08:42:07;100313.75;;;3.10;63.19
68456;BME280;55437;55.046;38.838;2022-11-20T08:44:34;100319.66;;;3.09;62.98
68456;BME280;55437;55.046;38.838;2022-11-20T08:47:00;100332.38;;;3.12;62.96
68456;BME280;55437;55.046;38.838;2022-11-20T08:49:28;100337.50;;;3.22;63.17
68456;BME280;55437;55.046;38.838;2022-11-20T08:51:53;100347.66;;;3.22;62.74
68456;BME280;55437;55.046;38.838;2022-11-20T08:54:20;100335.81;;;3.23;63.03
68456;BME280;55437;55.046;38.838;2022-11-20T08:56:47;100350.22;;;3.25;62.80
68456;BME280;55437;55.046;38.838;2022-11-20T08:59:13;100351.94;;;3.39;62.87
68456;BME280;55437;55.046;38.838;2022-11-20T09:01:39;100355.41;;;3.48;62.71
68456;BME280;55437;55.046;38.838;2022-11-20T09:04:05;100351.97;;;3.42;62.62
68456;BME280;55437;55.046;38.838;2022-11-20T09:06:31;100364.63;;;3.33;63.00
68456;BME280;55437;55.046;38.838;2022-11-20T09:08:56;100363.78;;;3.34;62.97
68456;BME280;55437;55.046;38.838;2022-11-20T09:11:22;100351.13;;;3.37;63.05
68456;BME280;55437;55.046;38.838;2022-11-20T09:13:48;100362.13;;;3.43;62.65
68456;BME280;55437;55.046;38.838;2022-11-20T09:16:14;100363.00;;;3.45;62.68
68456;BME280;55437;55.046;38.838;2022-11-20T09:18:40;100355.41;;;3.50;62.70
68456;BME280;55437;55.046;38.838;2022-11-20T09:21:12;100357.09;;;3.46;62.76
68456;BME280;55437;55.046;38.838;2022-11-20T09:23:38;100360.44;;;3.42;62.48
68456;BME280;55437;55.046;38.838;2022-11-20T09:26:12;100366.38;;;3.44;62.73
68456;BME280;55437;55.046;38.838;2022-11-20T09:28:38;100368.94;;;3.47;62.74
68456;BME280;55437;55.046;38.838;2022-11-20T09:31:08;100390.09;;;3.49;62.72
68456;BME280;55437;55.046;38.838;2022-11-20T09:33:35;100387.53;;;3.46;62.56
68456;BME280;55437;55.046;38.838;2022-11-20T09:36:01;100385.84;;;3.51;62.79
68456;BME280;55437;55.046;38.838;2022-11-20T09:38:27;100383.34;;;3.56;62.84
68456;BME280;55437;55.046;38.838;2022-11-20T09:43:41;100399.50;;;3.67;62.38
68456;BME280;55437;55.046;38.838;2022-11-20T09:46:25;100398.66;;;3.68;62.55
68456;BME280;55437;55.046;38.838;2022-11-20T09:52:28;100415.50;;;3.52;63.13
68456;BME280;55437;55.046;38.838;2022-11-20T09:54:29;100422.28;;;3.55;63.09
68456;BME280;55437;55.046;38.838;2022-11-20T09:57:00;100416.25;;;3.41;63.20
68456;BME280;55437;55.046;38.838;2022-11-20T10:00:03;100414.56;;;3.40;63.38
68456;BME280;55437;55.046;38.838;2022-11-20T10:05:22;100423.88;;;3.39;63.42
68456;BME280;55437;55.046;38.838;2022-11-20T10:10:40;100425.53;;;3.34;63.51
68456;BME280;55437;55.046;38.838;2022-11-20T10:21:30;100426.41;;;3.39;63.47
68456;BME280;55437;55.046;38.838;2022-11-20T10:30:01;100423.09;;;3.49;63.31
68456;BME280;55437;55.046;38.838;2022-11-20T10:32:42;100428.19;;;3.49;63.42
68456;BME280;55437;55.046;38.838;2022-11-20T10:35:17;100448.50;;;3.52;63.67
68456;BME280;55437;55.046;38.838;2022-11-20T10:37:47;100442.59;;;3.55;63.61
68456;BME280;55437;55.046;38.838;2022-11-20T10:40:40;100440.88;;;3.49;63.84
68456;BME280;55437;55.046;38.838;2022-11-20T10:48:18;100445.06;;;3.44;63.82
68456;BME280;55437;55.046;38.838;2022-11-20T10:56:39;100448.47;;;3.46;63.80
68456;BME280;55437;55.046;38.838;2022-11-20T11:02:29;100462.78;;;3.37;63.93
68456;BME280;55437;55.046;38.838;2022-11-20T11:04:59;100462.69;;;3.24;64.21
68456;BME280;55437;55.046;38.838;2022-11-20T11:07:38;100460.06;;;3.11;64.57
68456;BME280;55437;55.046;38.838;2022-11-20T11:10:18;100463.34;;;3.01;64.70
68456;BME280;55437;55.046;38.838;2022-11-20T11:12:46;100453.13;;;2.95;64.83
68456;BME280;55437;55.046;38.838;2022-11-20T11:15:44;100453.91;;;2.86;64.86
68456;BME280;55437;55.046;38.838;2022-11-20T11:18:11;100455.63;;;2.90;64.89
68456;BME280;55437;55.046;38.838;2022-11-20T11:20:37;100459.84;;;2.86;64.88
68456;BME280;55437;55.046;38.838;2022-11-20T11:23:03;100469.13;;;2.84;65.21
68456;BME280;55437;55.046;38.838;2022-11-20T11:25:31;100469.13;;;2.86;64.78
68456;BME280;55437;55.046;38.838;2022-11-20T11:30:44;100468.34;;;2.95;64.66
68456;BME280;55437;55.046;38.838;2022-11-20T11:33:18;100472.56;;;2.94;64.48
68456;BME280;55437;55.046;38.838;2022-11-20T11:35:49;100469.28;;;3.01;64.70
68456;BME280;55437;55.046;38.838;2022-11-20T11:38:17;100468.38;;;2.98;64.58
68456;BME280;55437;55.046;38.838;2022-11-20T11:40:46;100473.38;;;2.90;64.64
68456;BME280;55437;55.046;38.838;2022-11-20T11:43:19;100471.66;;;2.86;64.76
68456;BME280;55437;55.046;38.838;2022-11-20T11:49:00;100471.56;;;2.74;64.94
68456;BME280;55437;55.046;38.838;2022-11-20T11:51:45;100472.31;;;2.67;65.11
68456;BME280;55437;55.046;38.838;2022-11-20T11:57:20;100454.47;;;2.56;65.37
68456;BME280;55437;55.046;38.838;2022-11-20T12:00:03;100463.72;;;2.52;65.40
68456;BME280;55437;55.046;38.838;2022-11-20T12:10:51;100483.16;;;2.52;65.64
68456;BME280;55437;55.046;38.838;2022-11-20T12:16:03;100488.31;;;2.61;65.56
68456;BME280;55437;55.046;38.838;2022-11-20T12:18:29;100483.28;;;2.67;65.10
68456;BME280;55437;55.046;38.838;2022-11-20T12:21:18;100476.50;;;2.63;65.25
68456;BME280;55437;55.046;38.838;2022-11-20T12:34:47;100497.63;;;2.62;65.31
68456;BME280;55437;55.046;38.838;2022-11-20T12:40:02;100495.94;;;2.66;65.29
68456;BME280;55437;55.046;38.838;2022-11-20T12:48:25;100496.66;;;2.54;65.18
68456;BME280;55437;55.046;38.838;2022-11-20T12:51:06;100495.81;;;2.50;65.38
68456;BME280;55437;55.046;38.838;2022-11-20T12:59:15;100483.03;;;2.41;65.22
68456;BME280;55437;55.046;38.838;2022-11-20T13:01:56;100487.28;;;2.44;65.30
68456;BME280;55437;55.046;38.838;2022-11-20T13:06:50;100497.44;;;2.47;65.17
68456;BME280;55437;55.046;38.838;2022-11-20T13:09:19;100506.81;;;2.51;65.00
68456;BME280;55437;55.046;38.838;2022-11-20T13:12:06;100510.09;;;2.45;64.90
68456;BME280;55437;55.046;38.838;2022-11-20T13:15:38;100520.34;;;2.56;64.74
68456;BME280;55437;55.046;38.838;2022-11-20T13:17:56;100527.09;;;2.54;64.77
68456;BME280;55437;55.046;38.838;2022-11-20T13:20:26;100530.44;;;2.50;64.73
68456;BME280;55437;55.046;38.838;2022-11-20T13:22:55;100522.88;;;2.51;64.70
68456;BME280;55437;55.046;38.838;2022-11-20T13:27:49;100535.56;;;2.53;65.13
68456;BME280;55437;55.046;38.838;2022-11-20T13:33:37;100536.41;;;2.57;64.33
68456;BME280;55437;55.046;38.838;2022-11-20T13:35:40;100537.22;;;2.51;64.29
68456;BME280;55437;55.046;38.838;2022-11-20T13:38:14;100537.16;;;2.46;64.44
68456;BME280;55437;55.046;38.838;2022-11-20T13:46:06;100532.16;;;2.54;63.94
68456;BME280;55437;55.046;38.838;2022-11-20T13:48:43;100532.16;;;2.54;63.73
68456;BME280;55437;55.046;38.838;2022-11-20T13:51:35;100528.84;;;2.58;63.28
68456;BME280;55437;55.046;38.838;2022-11-20T14:02:17;100539.72;;;2.49;63.28
68456;BME280;55437;55.046;38.838;2022-11-20T14:04:57;100534.63;;;2.46;63.26
68456;BME280;55437;55.046;38.838;2022-11-20T14:07:43;100538.84;;;2.46;63.09
68456;BME280;55437;55.046;38.838;2022-11-20T14:10:20;100550.69;;;2.48;63.19
68456;BME280;55437;55.046;38.838;2022-11-20T14:12:47;100556.66;;;2.52;62.71
68456;BME280;55437;55.046;38.838;2022-11-20T14:15:31;100569.41;;;2.58;62.63
68456;BME280;55437;55.046;38.838;2022-11-20T14:17:58;100579.53;;;2.58;62.83
68456;BME280;55437;55.046;38.838;2022-11-20T14:20:29;100579.50;;;2.55;62.46
68456;BME280;55437;55.046;38.838;2022-11-20T14:22:56;100577.84;;;2.59;62.50
68456;BME280;55437;55.046;38.838;2022-11-20T14:25:26;100583.84;;;2.67;62.41
68456;BME280;55437;55.046;38.838;2022-11-20T14:27:59;100578.75;;;2.62;62.51
68456;BME280;55437;55.046;38.838;2022-11-20T14:30:37;100585.47;;;2.59;62.50
68456;BME280;55437;55.046;38.838;2022-11-20T14:33:04;100577.75;;;2.49;62.43
68456;BME280;55437;55.046;38.838;2022-11-20T14:35:34;100572.72;;;2.52;62.46
68456;BME280;55437;55.046;38.838;2022-11-20T14:38:01;100575.28;;;2.57;62.50
68456;BME280;55437;55.046;38.838;2022-11-20T14:40:35;100580.44;;;2.62;61.99
68456;BME280;55437;55.046;38.838;2022-11-20T14:43:04;100581.34;;;2.68;62.14
68456;BME280;55437;55.046;38.838;2022-11-20T14:45:47;100574.56;;;2.67;61.84
68456;BME280;55437;55.046;38.838;2022-11-20T14:48:17;100580.47;;;2.63;61.97
68456;BME280;55437;55.046;38.838;2022-11-20T14:50:45;100595.72;;;2.69;61.88
68456;BME280;55437;55.046;38.838;2022-11-20T14:53:11;100606.69;;;2.68;61.99
68456;BME280;55437;55.046;38.838;2022-11-20T14:55:57;100603.94;;;2.50;62.07
68456;BME280;55437;55.046;38.838;2022-11-20T14:58:27;100611.53;;;2.48;62.50